Terminal Aerodrome Forecast
Issued by NWS

Home | Current Version | Previous Version | Text Only | Print | Product List | Glossary On
Versions: 1 2 3 4 5 6 7 8 9 10 11 12 13 14 15
131
FTAK31 PAJN 191142
TAFAKT
TAF
PAKT 191142Z 1912/2012 14007KT P6SM -SHRA BKN015 OVC045
      TEMPO 1912/1916 SCT015 OVC045
     FM191600 12010KT P6SM -SHRA SCT025 OVC040
      TEMPO 1916/1920 4SM -SHRA BR BKN025 OVC040
     FM192100 14012KT 4SM -SHRA BR BKN015 OVC025
      AMD LTD TO CLD VIS AND WIND 1912/1915=

USA.gov is the U.S. government's official web portal to all federal, state and local government web resources and services.